sensor_id;sensor_type;location;lat;lon;timestamp;P1;durP1;ratioP1;P2;durP2;ratioP2
41343;SDS011;27089;50.022;7.604;2023-11-19T00:02:26;0.60;;;0.40;;
41343;SDS011;27089;50.022;7.604;2023-11-19T00:04:53;0.90;;;0.50;;
41343;SDS011;27089;50.022;7.604;2023-11-19T00:07:20;0.60;;;0.60;;
41343;SDS011;27089;50.022;7.604;2023-11-19T00:09:47;0.50;;;0.40;;
41343;SDS011;27089;50.022;7.604;2023-11-19T00:12:14;0.40;;;0.40;;
41343;SDS011;27089;50.022;7.604;2023-11-19T00:14:41;0.90;;;0.50;;
41343;SDS011;27089;50.022;7.604;2023-11-19T00:17:09;1.07;;;0.20;;
41343;SDS011;27089;50.022;7.604;2023-11-19T00:19:37;3.03;;;0.40;;
41343;SDS011;27089;50.022;7.604;2023-11-19T00:22:04;0.50;;;0.23;;
41343;SDS011;27089;50.022;7.604;2023-11-19T00:24:31;0.50;;;0.30;;
41343;SDS011;27089;50.022;7.604;2023-11-19T00:26:58;0.20;;;0.20;;
41343;SDS011;27089;50.022;7.604;2023-11-19T00:29:25;0.20;;;0.20;;
41343;SDS011;27089;50.022;7.604;2023-11-19T00:31:52;1.40;;;0.17;;
41343;SDS011;27089;50.022;7.604;2023-11-19T00:34:19;0.30;;;0.20;;
41343;SDS011;27089;50.022;7.604;2023-11-19T00:36:49;0.47;;;0.30;;
41343;SDS011;27089;50.022;7.604;2023-11-19T00:39:16;0.50;;;0.10;;
41343;SDS011;27089;50.022;7.604;2023-11-19T00:41:45;0.40;;;0.27;;
41343;SDS011;27089;50.022;7.604;2023-11-19T00:44:12;0.23;;;0.20;;
41343;SDS011;27089;50.022;7.604;2023-11-19T00:46:39;1.50;;;0.20;;
41343;SDS011;27089;50.022;7.604;2023-11-19T00:49:06;0.33;;;0.20;;
41343;SDS011;27089;50.022;7.604;2023-11-19T00:51:33;0.30;;;0.30;;
41343;SDS011;27089;50.022;7.604;2023-11-19T00:54:02;0.47;;;0.20;;
41343;SDS011;27089;50.022;7.604;2023-11-19T00:56:29;0.40;;;0.27;;
41343;SDS011;27089;50.022;7.604;2023-11-19T00:58:56;0.73;;;0.30;;
41343;SDS011;27089;50.022;7.604;2023-11-19T01:01:23;2.00;;;0.30;;
41343;SDS011;27089;50.022;7.604;2023-11-19T01:03:50;0.97;;;0.10;;
41343;SDS011;27089;50.022;7.604;2023-11-19T01:06:26;2.17;;;0.33;;
41343;SDS011;27089;50.022;7.604;2023-11-19T01:08:53;0.70;;;0.40;;
41343;SDS011;27089;50.022;7.604;2023-11-19T01:11:23;0.40;;;0.30;;
41343;SDS011;27089;50.022;7.604;2023-11-19T01:13:51;0.23;;;0.20;;
41343;SDS011;27089;50.022;7.604;2023-11-19T01:16:18;0.70;;;0.30;;
41343;SDS011;27089;50.022;7.604;2023-11-19T01:18:46;0.40;;;0.30;;
41343;SDS011;27089;50.022;7.604;2023-11-19T01:21:13;0.37;;;0.20;;
41343;SDS011;27089;50.022;7.604;2023-11-19T01:23:40;0.40;;;0.30;;
41343;SDS011;27089;50.022;7.604;2023-11-19T01:26:08;1.00;;;0.60;;
41343;SDS011;27089;50.022;7.604;2023-11-19T01:28:38;0.60;;;0.60;;
41343;SDS011;27089;50.022;7.604;2023-11-19T01:31:10;0.73;;;0.30;;
41343;SDS011;27089;50.022;7.604;2023-11-19T01:33:37;0.47;;;0.10;;
41343;SDS011;27089;50.022;7.604;2023-11-19T01:36:05;0.30;;;0.20;;
41343;SDS011;27089;50.022;7.604;2023-11-19T01:38:33;0.20;;;0.20;;
41343;SDS011;27089;50.022;7.604;2023-11-19T01:41:00;2.00;;;0.30;;
41343;SDS011;27089;50.022;7.604;2023-11-19T01:43:31;1.60;;;0.27;;
41343;SDS011;27089;50.022;7.604;2023-11-19T01:45:59;0.50;;;0.20;;
41343;SDS011;27089;50.022;7.604;2023-11-19T01:48:27;0.20;;;0.20;;
41343;SDS011;27089;50.022;7.604;2023-11-19T01:50:54;0.30;;;0.20;;
41343;SDS011;27089;50.022;7.604;2023-11-19T01:53:22;0.20;;;0.20;;
41343;SDS011;27089;50.022;7.604;2023-11-19T01:55:50;0.67;;;0.27;;
41343;SDS011;27089;50.022;7.604;2023-11-19T01:58:17;0.20;;;0.20;;
41343;SDS011;27089;50.022;7.604;2023-11-19T02:00:45;0.47;;;0.30;;
41343;SDS011;27089;50.022;7.604;2023-11-19T02:03:14;0.77;;;0.30;;
41343;SDS011;27089;50.022;7.604;2023-11-19T02:05:41;0.37;;;0.30;;
41343;SDS011;27089;50.022;7.604;2023-11-19T02:08:08;0.30;;;0.27;;
41343;SDS011;27089;50.022;7.604;2023-11-19T02:10:35;0.30;;;0.30;;
41343;SDS011;27089;50.022;7.604;2023-11-19T02:13:03;0.63;;;0.30;;
41343;SDS011;27089;50.022;7.604;2023-11-19T02:15:31;0.53;;;0.20;;
41343;SDS011;27089;50.022;7.604;2023-11-19T02:20:52;0.40;;;0.30;;
41343;SDS011;27089;50.022;7.604;2023-11-19T02:23:20;0.37;;;0.30;;
41343;SDS011;27089;50.022;7.604;2023-11-19T02:25:52;0.40;;;0.40;;
41343;SDS011;27089;50.022;7.604;2023-11-19T02:28:37;1.03;;;0.20;;
41343;SDS011;27089;50.022;7.604;2023-11-19T02:31:05;0.50;;;0.27;;
41343;SDS011;27089;50.022;7.604;2023-11-19T02:33:34;1.43;;;0.30;;
41343;SDS011;27089;50.022;7.604;2023-11-19T02:36:01;0.90;;;0.40;;
41343;SDS011;27089;50.022;7.604;2023-11-19T02:38:29;0.70;;;0.33;;
41343;SDS011;27089;50.022;7.604;2023-11-19T02:40:56;0.60;;;0.40;;
41343;SDS011;27089;50.022;7.604;2023-11-19T02:43:23;1.43;;;0.33;;
41343;SDS011;27089;50.022;7.604;2023-11-19T02:45:51;2.67;;;0.50;;
41343;SDS011;27089;50.022;7.604;2023-11-19T02:48:20;0.20;;;0.20;;
41343;SDS011;27089;50.022;7.604;2023-11-19T02:50:47;0.40;;;0.40;;
41343;SDS011;27089;50.022;7.604;2023-11-19T02:53:14;0.30;;;0.30;;
41343;SDS011;27089;50.022;7.604;2023-11-19T02:55:47;0.40;;;0.30;;
41343;SDS011;27089;50.022;7.604;2023-11-19T02:58:15;2.13;;;0.40;;
41343;SDS011;27089;50.022;7.604;2023-11-19T03:00:48;0.50;;;0.50;;
41343;SDS011;27089;50.022;7.604;2023-11-19T03:03:22;1.17;;;0.47;;
41343;SDS011;27089;50.022;7.604;2023-11-19T03:05:53;1.90;;;0.50;;
41343;SDS011;27089;50.022;7.604;2023-11-19T03:08:20;0.33;;;0.33;;
41343;SDS011;27089;50.022;7.604;2023-11-19T03:10:48;0.13;;;0.13;;
41343;SDS011;27089;50.022;7.604;2023-11-19T03:13:15;0.30;;;0.30;;
41343;SDS011;27089;50.022;7.604;2023-11-19T03:15:43;0.30;;;0.30;;
41343;SDS011;27089;50.022;7.604;2023-11-19T03:18:11;0.40;;;0.13;;
41343;SDS011;27089;50.022;7.604;2023-11-19T03:20:38;0.40;;;0.30;;
41343;SDS011;27089;50.022;7.604;2023-11-19T03:23:05;0.70;;;0.30;;
41343;SDS011;27089;50.022;7.604;2023-11-19T03:25:32;1.00;;;0.20;;
41343;SDS011;27089;50.022;7.604;2023-11-19T03:27:59;0.67;;;0.40;;
41343;SDS011;27089;50.022;7.604;2023-11-19T03:30:27;2.03;;;0.40;;
41343;SDS011;27089;50.022;7.604;2023-11-19T03:32:54;1.50;;;0.20;;
41343;SDS011;27089;50.022;7.604;2023-11-19T03:35:23;0.40;;;0.30;;
41343;SDS011;27089;50.022;7.604;2023-11-19T03:37:50;1.70;;;0.30;;
41343;SDS011;27089;50.022;7.604;2023-11-19T03:40:18;0.30;;;0.30;;
41343;SDS011;27089;50.022;7.604;2023-11-19T03:42:45;0.60;;;0.30;;
41343;SDS011;27089;50.022;7.604;2023-11-19T03:45:12;1.23;;;0.30;;
41343;SDS011;27089;50.022;7.604;2023-11-19T03:47:40;0.53;;;0.40;;
41343;SDS011;27089;50.022;7.604;2023-11-19T03:50:08;0.50;;;0.50;;
41343;SDS011;27089;50.022;7.604;2023-11-19T03:52:36;1.30;;;0.50;;
41343;SDS011;27089;50.022;7.604;2023-11-19T03:55:03;0.50;;;0.50;;
41343;SDS011;27089;50.022;7.604;2023-11-19T03:57:31;0.50;;;0.40;;
41343;SDS011;27089;50.022;7.604;2023-11-19T03:59:58;0.40;;;0.40;;
41343;SDS011;27089;50.022;7.604;2023-11-19T04:02:25;1.50;;;0.50;;
41343;SDS011;27089;50.022;7.604;2023-11-19T04:04:53;1.20;;;0.57;;
41343;SDS011;27089;50.022;7.604;2023-11-19T04:07:21;0.87;;;0.60;;
41343;SDS011;27089;50.022;7.604;2023-11-19T04:09:48;3.63;;;0.50;;
41343;SDS011;27089;50.022;7.604;2023-11-19T04:12:16;0.50;;;0.50;;
41343;SDS011;27089;50.022;7.604;2023-11-19T04:14:42;0.90;;;0.70;;
41343;SDS011;27089;50.022;7.604;2023-11-19T04:17:10;1.57;;;0.60;;
41343;SDS011;27089;50.022;7.604;2023-11-19T04:19:37;1.53;;;0.53;;
41343;SDS011;27089;50.022;7.604;2023-11-19T04:22:06;0.83;;;0.60;;
41343;SDS011;27089;50.022;7.604;2023-11-19T04:24:33;1.00;;;0.80;;
41343;SDS011;27089;50.022;7.604;2023-11-19T04:27:01;1.47;;;0.70;;
41343;SDS011;27089;50.022;7.604;2023-11-19T04:29:30;0.50;;;0.50;;
41343;SDS011;27089;50.022;7.604;2023-11-19T04:31:57;1.63;;;0.70;;
41343;SDS011;27089;50.022;7.604;2023-11-19T04:34:26;0.93;;;0.60;;
41343;SDS011;27089;50.022;7.604;2023-11-19T04:36:53;2.17;;;0.80;;
41343;SDS011;27089;50.022;7.604;2023-11-19T04:39:20;3.07;;;1.47;;
41343;SDS011;27089;50.022;7.604;2023-11-19T04:41:47;1.00;;;0.70;;
41343;SDS011;27089;50.022;7.604;2023-11-19T04:44:16;1.20;;;1.10;;
41343;SDS011;27089;50.022;7.604;2023-11-19T04:46:43;1.27;;;1.00;;
41343;SDS011;27089;50.022;7.604;2023-11-19T04:49:10;2.40;;;1.00;;
41343;SDS011;27089;50.022;7.604;2023-11-19T04:51:38;1.63;;;1.10;;
41343;SDS011;27089;50.022;7.604;2023-11-19T04:54:07;2.40;;;1.87;;
41343;SDS011;27089;50.022;7.604;2023-11-19T04:56:34;2.13;;;1.80;;
41343;SDS011;27089;50.022;7.604;2023-11-19T04:59:03;4.73;;;2.97;;
41343;SDS011;27089;50.022;7.604;2023-11-19T05:01:33;3.30;;;2.23;;
41343;SDS011;27089;50.022;7.604;2023-11-19T05:04:00;7.97;;;4.80;;
41343;SDS011;27089;50.022;7.604;2023-11-19T05:06:28;8.20;;;5.30;;
41343;SDS011;27089;50.022;7.604;2023-11-19T05:08:55;8.80;;;3.10;;
41343;SDS011;27089;50.022;7.604;2023-11-19T05:11:23;8.50;;;6.27;;
41343;SDS011;27089;50.022;7.604;2023-11-19T05:13:49;7.37;;;4.63;;
41343;SDS011;27089;50.022;7.604;2023-11-19T05:16:16;5.00;;;3.77;;
41343;SDS011;27089;50.022;7.604;2023-11-19T05:18:46;4.50;;;3.00;;
41343;SDS011;27089;50.022;7.604;2023-11-19T05:21:13;3.50;;;2.37;;
41343;SDS011;27089;50.022;7.604;2023-11-19T05:23:42;3.13;;;1.80;;
41343;SDS011;27089;50.022;7.604;2023-11-19T05:26:09;1.87;;;1.57;;
41343;SDS011;27089;50.022;7.604;2023-11-19T05:28:44;1.40;;;1.30;;
41343;SDS011;27089;50.022;7.604;2023-11-19T05:31:10;3.83;;;1.47;;
41343;SDS011;27089;50.022;7.604;2023-11-19T05:33:37;2.70;;;1.40;;
41343;SDS011;27089;50.022;7.604;2023-11-19T05:36:06;2.13;;;1.40;;
41343;SDS011;27089;50.022;7.604;2023-11-19T05:38:34;2.50;;;1.30;;
41343;SDS011;27089;50.022;7.604;2023-11-19T05:41:01;3.80;;;1.37;;
41343;SDS011;27089;50.022;7.604;2023-11-19T05:43:29;2.57;;;1.20;;
41343;SDS011;27089;50.022;7.604;2023-11-19T05:45:57;2.77;;;1.90;;
41343;SDS011;27089;50.022;7.604;2023-11-19T05:48:25;2.57;;;1.70;;
41343;SDS011;27089;50.022;7.604;2023-11-19T05:50:52;2.20;;;1.30;;
41343;SDS011;27089;50.022;7.604;2023-11-19T05:53:21;4.90;;;1.80;;
41343;SDS011;27089;50.022;7.604;2023-11-19T05:55:48;3.37;;;1.50;;
41343;SDS011;27089;50.022;7.604;2023-11-19T05:58:20;4.30;;;1.60;;
41343;SDS011;27089;50.022;7.604;2023-11-19T06:00:50;3.27;;;1.83;;
41343;SDS011;27089;50.022;7.604;2023-11-19T06:03:18;4.60;;;2.20;;
41343;SDS011;27089;50.022;7.604;2023-11-19T06:05:46;4.83;;;2.60;;
41343;SDS011;27089;50.022;7.604;2023-11-19T06:08:13;4.57;;;2.17;;
41343;SDS011;27089;50.022;7.604;2023-11-19T06:10:43;4.77;;;2.20;;
41343;SDS011;27089;50.022;7.604;2023-11-19T06:13:11;2.60;;;2.10;;
41343;SDS011;27089;50.022;7.604;2023-11-19T06:15:40;4.00;;;2.50;;
41343;SDS011;27089;50.022;7.604;2023-11-19T06:18:07;3.87;;;2.37;;
41343;SDS011;27089;50.022;7.604;2023-11-19T06:20:36;1.67;;;1.30;;
41343;SDS011;27089;50.022;7.604;2023-11-19T06:23:04;1.50;;;1.10;;
41343;SDS011;27089;50.022;7.604;2023-11-19T06:25:30;1.83;;;1.50;;
41343;SDS011;27089;50.022;7.604;2023-11-19T06:27:59;1.60;;;1.20;;
41343;SDS011;27089;50.022;7.604;2023-11-19T06:30:26;2.73;;;1.40;;
41343;SDS011;27089;50.022;7.604;2023-11-19T06:32:53;1.93;;;1.50;;
41343;SDS011;27089;50.022;7.604;2023-11-19T06:35:20;2.50;;;1.30;;
41343;SDS011;27089;50.022;7.604;2023-11-19T06:37:47;2.23;;;1.30;;
41343;SDS011;27089;50.022;7.604;2023-11-19T06:40:14;2.60;;;1.00;;
41343;SDS011;27089;50.022;7.604;2023-11-19T06:42:41;1.90;;;0.97;;
41343;SDS011;27089;50.022;7.604;2023-11-19T06:45:10;2.87;;;1.27;;
41343;SDS011;27089;50.022;7.604;2023-11-19T06:47:37;1.60;;;0.90;;
41343;SDS011;27089;50.022;7.604;2023-11-19T06:50:05;2.37;;;1.40;;
41343;SDS011;27089;50.022;7.604;2023-11-19T06:52:34;3.13;;;1.83;;
41343;SDS011;27089;50.022;7.604;2023-11-19T06:55:03;4.47;;;1.70;;
41343;SDS011;27089;50.022;7.604;2023-11-19T06:57:31;3.97;;;2.13;;
41343;SDS011;27089;50.022;7.604;2023-11-19T06:59:58;6.27;;;3.90;;
41343;SDS011;27089;50.022;7.604;2023-11-19T07:02:27;9.37;;;6.40;;
41343;SDS011;27089;50.022;7.604;2023-11-19T07:04:54;7.53;;;4.70;;
41343;SDS011;27089;50.022;7.604;2023-11-19T07:07:21;6.97;;;4.10;;
41343;SDS011;27089;50.022;7.604;2023-11-19T07:09:48;10.00;;;5.40;;
41343;SDS011;27089;50.022;7.604;2023-11-19T07:12:15;8.07;;;4.37;;
41343;SDS011;27089;50.022;7.604;2023-11-19T07:14:42;3.77;;;2.30;;
41343;SDS011;27089;50.022;7.604;2023-11-19T07:17:09;2.60;;;1.40;;
41343;SDS011;27089;50.022;7.604;2023-11-19T07:19:37;2.93;;;1.60;;
41343;SDS011;27089;50.022;7.604;2023-11-19T07:22:04;5.37;;;1.30;;
41343;SDS011;27089;50.022;7.604;2023-11-19T07:24:32;7.20;;;1.30;;
41343;SDS011;27089;50.022;7.604;2023-11-19T07:26:59;8.30;;;5.53;;
41343;SDS011;27089;50.022;7.604;2023-11-19T07:29:28;17.47;;;8.97;;
41343;SDS011;27089;50.022;7.604;2023-11-19T07:31:56;5.33;;;3.10;;
41343;SDS011;27089;50.022;7.604;2023-11-19T07:34:23;7.83;;;5.00;;
41343;SDS011;27089;50.022;7.604;2023-11-19T07:36:52;8.70;;;4.20;;
41343;SDS011;27089;50.022;7.604;2023-11-19T07:39:20;10.30;;;5.17;;
41343;SDS011;27089;50.022;7.604;2023-11-19T07:41:47;6.30;;;5.20;;
41343;SDS011;27089;50.022;7.604;2023-11-19T07:44:14;5.30;;;3.77;;
41343;SDS011;27089;50.022;7.604;2023-11-19T07:46:41;15.43;;;8.93;;
41343;SDS011;27089;50.022;7.604;2023-11-19T07:49:10;6.23;;;3.33;;
41343;SDS011;27089;50.022;7.604;2023-11-19T07:51:37;5.50;;;3.30;;
41343;SDS011;27089;50.022;7.604;2023-11-19T07:54:06;4.67;;;1.83;;
41343;SDS011;27089;50.022;7.604;2023-11-19T07:56:33;7.77;;;2.53;;
41343;SDS011;27089;50.022;7.604;2023-11-19T07:59:00;2.03;;;1.17;;
41343;SDS011;27089;50.022;7.604;2023-11-19T08:01:27;6.63;;;3.10;;
41343;SDS011;27089;50.022;7.604;2023-11-19T08:03:54;7.83;;;4.00;;
41343;SDS011;27089;50.022;7.604;2023-11-19T08:06:22;9.93;;;4.73;;
41343;SDS011;27089;50.022;7.604;2023-11-19T08:08:48;3.60;;;2.30;;
41343;SDS011;27089;50.022;7.604;2023-11-19T08:11:18;3.70;;;1.43;;
41343;SDS011;27089;50.022;7.604;2023-11-19T08:13:45;6.13;;;1.47;;
41343;SDS011;27089;50.022;7.604;2023-11-19T08:16:12;3.83;;;1.23;;
41343;SDS011;27089;50.022;7.604;2023-11-19T08:18:41;5.40;;;1.30;;
41343;SDS011;27089;50.022;7.604;2023-11-19T08:21:08;4.50;;;1.37;;
41343;SDS011;27089;50.022;7.604;2023-11-19T08:23:35;4.67;;;1.50;;
41343;SDS011;27089;50.022;7.604;2023-11-19T08:26:03;6.47;;;1.67;;
41343;SDS011;27089;50.022;7.604;2023-11-19T08:28:32;9.90;;;1.97;;
41343;SDS011;27089;50.022;7.604;2023-11-19T08:30:59;3.60;;;1.30;;
41343;SDS011;27089;50.022;7.604;2023-11-19T08:33:26;6.60;;;1.57;;
41343;SDS011;27089;50.022;7.604;2023-11-19T08:35:53;8.90;;;2.27;;
41343;SDS011;27089;50.022;7.604;2023-11-19T08:38:20;7.07;;;2.27;;
41343;SDS011;27089;50.022;7.604;2023-11-19T08:40:47;9.57;;;1.87;;
41343;SDS011;27089;50.022;7.604;2023-11-19T08:43:14;5.53;;;1.70;;
41343;SDS011;27089;50.022;7.604;2023-11-19T08:45:43;4.63;;;1.50;;
41343;SDS011;27089;50.022;7.604;2023-11-19T08:48:10;6.40;;;3.00;;
41343;SDS011;27089;50.022;7.604;2023-11-19T08:50:37;6.60;;;1.80;;
41343;SDS011;27089;50.022;7.604;2023-11-19T08:53:04;6.67;;;1.73;;
41343;SDS011;27089;50.022;7.604;2023-11-19T08:55:31;5.27;;;1.67;;
41343;SDS011;27089;50.022;7.604;2023-11-19T08:57:59;5.37;;;1.83;;
41343;SDS011;27089;50.022;7.604;2023-11-19T09:00:26;7.03;;;1.90;;
41343;SDS011;27089;50.022;7.604;2023-11-19T09:02:54;9.33;;;2.40;;
41343;SDS011;27089;50.022;7.604;2023-11-19T09:05:23;10.63;;;2.10;;
41343;SDS011;27089;50.022;7.604;2023-11-19T09:07:50;7.83;;;1.77;;
41343;SDS011;27089;50.022;7.604;2023-11-19T09:10:17;6.70;;;1.50;;
41343;SDS011;27089;50.022;7.604;2023-11-19T09:12:44;6.53;;;1.90;;
41343;SDS011;27089;50.022;7.604;2023-11-19T09:15:11;9.63;;;1.83;;
41343;SDS011;27089;50.022;7.604;2023-11-19T09:17:38;8.97;;;2.23;;
41343;SDS011;27089;50.022;7.604;2023-11-19T09:20:08;6.80;;;1.90;;
41343;SDS011;27089;50.022;7.604;2023-11-19T09:22:40;6.60;;;1.77;;
41343;SDS011;27089;50.022;7.604;2023-11-19T09:25:07;8.57;;;2.13;;
41343;SDS011;27089;50.022;7.604;2023-11-19T09:27:35;9.83;;;1.80;;
41343;SDS011;27089;50.022;7.604;2023-11-19T09:30:02;5.60;;;1.80;;
41343;SDS011;27089;50.022;7.604;2023-11-19T09:32:30;6.83;;;2.07;;
41343;SDS011;27089;50.022;7.604;2023-11-19T09:34:57;9.80;;;2.20;;
41343;SDS011;27089;50.022;7.604;2023-11-19T09:37:26;6.40;;;1.80;;
41343;SDS011;27089;50.022;7.604;2023-11-19T09:39:53;5.10;;;1.90;;
41343;SDS011;27089;50.022;7.604;2023-11-19T09:42:20;7.63;;;1.80;;
41343;SDS011;27089;50.022;7.604;2023-11-19T09:44:47;7.03;;;1.73;;
41343;SDS011;27089;50.022;7.604;2023-11-19T09:47:15;10.07;;;2.10;;
41343;SDS011;27089;50.022;7.604;2023-11-19T09:49:44;6.17;;;1.70;;
41343;SDS011;27089;50.022;7.604;2023-11-19T09:52:13;7.90;;;1.80;;
41343;SDS011;27089;50.022;7.604;2023-11-19T09:54:41;6.70;;;1.90;;
41343;SDS011;27089;50.022;7.604;2023-11-19T09:57:08;11.70;;;1.90;;
41343;SDS011;27089;50.022;7.604;2023-11-19T09:59:37;8.77;;;1.87;;
41343;SDS011;27089;50.022;7.604;2023-11-19T10:02:06;8.00;;;1.80;;
41343;SDS011;27089;50.022;7.604;2023-11-19T10:04:34;5.23;;;2.13;;
41343;SDS011;27089;50.022;7.604;2023-11-19T10:07:04;6.17;;;1.70;;
41343;SDS011;27089;50.022;7.604;2023-11-19T10:09:31;9.60;;;2.00;;
41343;SDS011;27089;50.022;7.604;2023-11-19T10:11:59;8.17;;;2.00;;
41343;SDS011;27089;50.022;7.604;2023-11-19T10:14:26;7.67;;;1.97;;
41343;SDS011;27089;50.022;7.604;2023-11-19T10:16:56;9.03;;;1.93;;
41343;SDS011;27089;50.022;7.604;2023-11-19T10:19:23;9.53;;;1.87;;
41343;SDS011;27089;50.022;7.604;2023-11-19T10:21:50;6.97;;;1.93;;
41343;SDS011;27089;50.022;7.604;2023-11-19T10:24:22;11.60;;;2.07;;
41343;SDS011;27089;50.022;7.604;2023-11-19T10:27:01;7.47;;;2.00;;
41343;SDS011;27089;50.022;7.604;2023-11-19T10:29:29;10.37;;;1.90;;
41343;SDS011;27089;50.022;7.604;2023-11-19T10:31:56;8.77;;;1.67;;
41343;SDS011;27089;50.022;7.604;2023-11-19T10:34:27;7.33;;;1.73;;
41343;SDS011;27089;50.022;7.604;2023-11-19T10:36:55;8.23;;;1.97;;
41343;SDS011;27089;50.022;7.604;2023-11-19T10:39:22;6.03;;;1.67;;
41343;SDS011;27089;50.022;7.604;2023-11-19T10:41:49;7.83;;;1.50;;
41343;SDS011;27089;50.022;7.604;2023-11-19T10:47:01;9.13;;;2.50;;
41343;SDS011;27089;50.022;7.604;2023-11-19T10:49:31;6.93;;;1.67;;
41343;SDS011;27089;50.022;7.604;2023-11-19T10:52:00;5.97;;;1.73;;
41343;SDS011;27089;50.022;7.604;2023-11-19T10:54:29;6.67;;;2.10;;
41343;SDS011;27089;50.022;7.604;2023-11-19T10:56:58;8.27;;;2.03;;
41343;SDS011;27089;50.022;7.604;2023-11-19T10:59:26;7.90;;;1.80;;
41343;SDS011;27089;50.022;7.604;2023-11-19T11:01:57;12.17;;;2.30;;
41343;SDS011;27089;50.022;7.604;2023-11-19T11:04:31;8.53;;;1.77;;
41343;SDS011;27089;50.022;7.604;2023-11-19T11:07:07;9.77;;;1.80;;
41343;SDS011;27089;50.022;7.604;2023-11-19T11:09:35;10.03;;;2.47;;
41343;SDS011;27089;50.022;7.604;2023-11-19T11:12:02;9.23;;;1.80;;
41343;SDS011;27089;50.022;7.604;2023-11-19T11:14:32;8.27;;;2.27;;
41343;SDS011;27089;50.022;7.604;2023-11-19T11:17:07;10.03;;;5.67;;
41343;SDS011;27089;50.022;7.604;2023-11-19T11:19:36;17.17;;;7.53;;
41343;SDS011;27089;50.022;7.604;2023-11-19T11:22:03;37.07;;;20.90;;
41343;SDS011;27089;50.022;7.604;2023-11-19T11:24:41;23.60;;;14.03;;
41343;SDS011;27089;50.022;7.604;2023-11-19T11:27:38;10.20;;;5.80;;
41343;SDS011;27089;50.022;7.604;2023-11-19T11:30:20;8.67;;;2.97;;
41343;SDS011;27089;50.022;7.604;2023-11-19T11:33:02;10.30;;;3.60;;
41343;SDS011;27089;50.022;7.604;2023-11-19T11:35:41;10.87;;;4.77;;
41343;SDS011;27089;50.022;7.604;2023-11-19T11:38:16;10.87;;;3.20;;
41343;SDS011;27089;50.022;7.604;2023-11-19T11:43:44;9.17;;;2.80;;
41343;SDS011;27089;50.022;7.604;2023-11-19T11:49:18;6.97;;;2.23;;
41343;SDS011;27089;50.022;7.604;2023-11-19T11:52:02;6.77;;;1.70;;
41343;SDS011;27089;50.022;7.604;2023-11-19T11:54:30;6.13;;;2.00;;
41343;SDS011;27089;50.022;7.604;2023-11-19T11:57:01;7.47;;;1.70;;
41343;SDS011;27089;50.022;7.604;2023-11-19T11:59:34;8.53;;;1.90;;
41343;SDS011;27089;50.022;7.604;2023-11-19T12:02:04;8.30;;;1.80;;
41343;SDS011;27089;50.022;7.604;2023-11-19T12:04:35;7.57;;;1.90;;
41343;SDS011;27089;50.022;7.604;2023-11-19T12:07:03;7.63;;;1.70;;
41343;SDS011;27089;50.022;7.604;2023-11-19T12:09:31;10.50;;;2.20;;
41343;SDS011;27089;50.022;7.604;2023-11-19T12:12:07;6.57;;;1.67;;
41343;SDS011;27089;50.022;7.604;2023-11-19T12:17:37;9.00;;;2.23;;
41343;SDS011;27089;50.022;7.604;2023-11-19T12:20:17;8.37;;;1.57;;
41343;SDS011;27089;50.022;7.604;2023-11-19T12:22:45;9.37;;;1.80;;
41343;SDS011;27089;50.022;7.604;2023-11-19T12:25:14;8.43;;;2.40;;
41343;SDS011;27089;50.022;7.604;2023-11-19T12:27:43;8.17;;;2.20;;
41343;SDS011;27089;50.022;7.604;2023-11-19T12:30:11;10.07;;;2.20;;
41343;SDS011;27089;50.022;7.604;2023-11-19T12:32:39;6.37;;;1.50;;
41343;SDS011;27089;50.022;7.604;2023-11-19T12:35:07;8.40;;;1.83;;
41343;SDS011;27089;50.022;7.604;2023-11-19T12:37:50;7.23;;;1.70;;
41343;SDS011;27089;50.022;7.604;2023-11-19T12:40:19;8.13;;;1.83;;
41343;SDS011;27089;50.022;7.604;2023-11-19T12:42:48;6.77;;;1.93;;
41343;SDS011;27089;50.022;7.604;2023-11-19T12:45:15;9.77;;;1.77;;
41343;SDS011;27089;50.022;7.604;2023-11-19T12:47:44;5.40;;;1.40;;
41343;SDS011;27089;50.022;7.604;2023-11-19T12:50:12;6.43;;;1.60;;
41343;SDS011;27089;50.022;7.604;2023-11-19T12:52:43;8.10;;;2.03;;
41343;SDS011;27089;50.022;7.604;2023-11-19T12:55:24;8.40;;;2.10;;
41343;SDS011;27089;50.022;7.604;2023-11-19T12:57:52;9.40;;;2.30;;
41343;SDS011;27089;50.022;7.604;2023-11-19T13:00:20;9.73;;;2.07;;
41343;SDS011;27089;50.022;7.604;2023-11-19T13:02:50;11.67;;;2.17;;
41343;SDS011;27089;50.022;7.604;2023-11-19T13:05:27;7.93;;;1.57;;
41343;SDS011;27089;50.022;7.604;2023-11-19T13:08:01;9.13;;;1.90;;
41343;SDS011;27089;50.022;7.604;2023-11-19T13:10:30;8.53;;;1.83;;
41343;SDS011;27089;50.022;7.604;2023-11-19T13:13:01;7.80;;;1.60;;
41343;SDS011;27089;50.022;7.604;2023-11-19T13:15:29;8.50;;;1.67;;
41343;SDS011;27089;50.022;7.604;2023-11-19T13:17:55;6.97;;;1.97;;
41343;SDS011;27089;50.022;7.604;2023-11-19T13:20:22;6.63;;;1.73;;
41343;SDS011;27089;50.022;7.604;2023-11-19T13:22:56;8.80;;;1.70;;
41343;SDS011;27089;50.022;7.604;2023-11-19T13:25:25;9.37;;;1.87;;
41343;SDS011;27089;50.022;7.604;2023-11-19T13:27:52;8.97;;;2.23;;
41343;SDS011;27089;50.022;7.604;2023-11-19T13:30:19;9.37;;;2.53;;
41343;SDS011;27089;50.022;7.604;2023-11-19T13:32:47;10.53;;;2.00;;
41343;SDS011;27089;50.022;7.604;2023-11-19T13:35:14;7.47;;;1.90;;
41343;SDS011;27089;50.022;7.604;2023-11-19T13:37:42;11.47;;;2.30;;
41343;SDS011;27089;50.022;7.604;2023-11-19T13:40:09;8.73;;;3.20;;
41343;SDS011;27089;50.022;7.604;2023-11-19T13:42:40;8.50;;;2.83;;
41343;SDS011;27089;50.022;7.604;2023-11-19T13:45:08;10.50;;;2.27;;
41343;SDS011;27089;50.022;7.604;2023-11-19T13:47:37;7.30;;;1.90;;
41343;SDS011;27089;50.022;7.604;2023-11-19T13:50:07;8.20;;;1.87;;
41343;SDS011;27089;50.022;7.604;2023-11-19T13:52:35;9.37;;;2.00;;
41343;SDS011;27089;50.022;7.604;2023-11-19T13:55:05;8.50;;;2.10;;
41343;SDS011;27089;50.022;7.604;2023-11-19T13:57:33;8.97;;;1.90;;
41343;SDS011;27089;50.022;7.604;2023-11-19T14:00:05;10.60;;;2.20;;
41343;SDS011;27089;50.022;7.604;2023-11-19T14:02:37;10.10;;;2.10;;
41343;SDS011;27089;50.022;7.604;2023-11-19T14:05:05;13.63;;;2.33;;
41343;SDS011;27089;50.022;7.604;2023-11-19T14:07:32;8.00;;;2.10;;
41343;SDS011;27089;50.022;7.604;2023-11-19T14:09:59;5.87;;;1.90;;
41343;SDS011;27089;50.022;7.604;2023-11-19T14:12:26;13.37;;;2.13;;
41343;SDS011;27089;50.022;7.604;2023-11-19T14:14:53;9.80;;;2.70;;
41343;SDS011;27089;50.022;7.604;2023-11-19T14:17:22;7.33;;;1.90;;
41343;SDS011;27089;50.022;7.604;2023-11-19T14:19:50;10.83;;;2.07;;
41343;SDS011;27089;50.022;7.604;2023-11-19T14:22:17;8.77;;;2.13;;
41343;SDS011;27089;50.022;7.604;2023-11-19T14:24:44;14.20;;;2.00;;
41343;SDS011;27089;50.022;7.604;2023-11-19T14:27:11;10.80;;;2.23;;
41343;SDS011;27089;50.022;7.604;2023-11-19T14:29:38;10.40;;;2.03;;
41343;SDS011;27089;50.022;7.604;2023-11-19T14:32:05;9.00;;;2.17;;
41343;SDS011;27089;50.022;7.604;2023-11-19T14:34:34;11.07;;;2.13;;
41343;SDS011;27089;50.022;7.604;2023-11-19T14:37:01;9.63;;;1.63;;
41343;SDS011;27089;50.022;7.604;2023-11-19T14:39:28;12.03;;;2.30;;
41343;SDS011;27089;50.022;7.604;2023-11-19T14:41:56;10.23;;;2.20;;
41343;SDS011;27089;50.022;7.604;2023-11-19T14:44:26;7.40;;;2.00;;
41343;SDS011;27089;50.022;7.604;2023-11-19T14:46:54;7.40;;;2.40;;
41343;SDS011;27089;50.022;7.604;2023-11-19T14:49:21;17.13;;;5.67;;
41343;SDS011;27089;50.022;7.604;2023-11-19T14:51:50;20.90;;;9.00;;
41343;SDS011;27089;50.022;7.604;2023-11-19T14:54:17;11.17;;;2.60;;
41343;SDS011;27089;50.022;7.604;2023-11-19T14:56:44;9.23;;;2.10;;
41343;SDS011;27089;50.022;7.604;2023-11-19T14:59:11;9.97;;;2.00;;
41343;SDS011;27089;50.022;7.604;2023-11-19T15:01:38;10.80;;;2.60;;
41343;SDS011;27089;50.022;7.604;2023-11-19T15:04:06;10.60;;;2.10;;
41343;SDS011;27089;50.022;7.604;2023-11-19T15:06:33;7.80;;;1.97;;
41343;SDS011;27089;50.022;7.604;2023-11-19T15:09:01;9.07;;;2.10;;